Time;durP1;ratioP1;P1;durP2;ratioP2;P2;SDS_P1;SDS_P2;PMS_P1;PMS_P2;Temp;Humidity;BMP_temperature;BMP_pressure;BME280_temperature;BME280_humidity;BME280_pressure;Samples;Min_cycle;Max_cycle;Signal;HPM_P1;HPM_P2
2022/05/16 06:27:02;;;;;;;;;17.00;15.00;;;;;20.60;100.00;99817.69;6374173;22;45310;-89
2022/05/16 06:29:28;;;;;;;;;12.67;10.67;;;;;20.60;100.00;99829.25;6370054;22;45273;-95
2022/05/16 06:31:53;;;;;;;;;11.00;9.67;;;;;20.63;100.00;99839.88;6371186;22;45196;-93
2022/05/16 06:34:20;;;;;;;;;11.00;11.00;;;;;20.71;100.00;99838.91;6399456;22;46721;-92
2022/05/16 06:36:47;;;;;;;;;13.33;13.33;;;;;20.76;100.00;99839.75;6400295;22;45261;-92
2022/05/16 06:39:12;;;;;;;;;13.00;12.33;;;;;20.81;100.00;99832.56;6367889;22;45529;-88
2022/05/16 06:41:38;;;;;;;;;11.00;11.00;;;;;20.78;100.00;99840.59;6397179;22;45382;-90
2022/05/16 06:44:03;;;;;;;;;16.00;12.33;;;;;20.91;100.00;99856.44;6398039;22;45488;-91
2022/05/16 06:46:29;;;;;;;;;11.67;9.67;;;;;20.99;100.00;99876.81;6384000;22;45742;-90
2022/05/16 06:48:54;;;;;;;;;13.33;10.67;;;;;20.99;100.00;99882.13;6374778;22;45284;-90
2022/05/16 06:51:20;;;;;;;;;13.67;12.33;;;;;21.07;100.00;99883.88;6371970;22;45397;-91
2022/05/16 06:53:46;;;;;;;;;14.00;11.00;;;;;21.12;100.00;99899.81;6371784;22;47172;-91
2022/05/16 06:56:11;;;;;;;;;10.00;9.33;;;;;21.17;100.00;99909.53;6371327;22;45675;-91
2022/05/16 06:58:37;;;;;;;;;11.67;10.67;;;;;21.20;100.00;99940.63;6366066;22;45407;-89
2022/05/16 07:01:03;;;;;;;;;17.33;11.00;;;;;21.20;100.00;99948.63;6369132;22;45191;-90
2022/05/16 07:03:29;;;;;;;;;12.33;11.33;;;;;21.21;100.00;99945.94;6374344;22;47619;-92
2022/05/16 07:05:55;;;;;;;;;11.67;11.67;;;;;21.26;100.00;99958.38;6378229;22;45378;-92
2022/05/16 07:08:23;;;;;;;;;12.00;10.67;;;;;21.28;100.00;99964.56;6407248;22;45225;-92
2022/05/16 07:10:50;;;;;;;;;12.00;11.00;;;;;21.37;100.00;99947.53;6382767;22;45304;-89
2022/05/16 07:13:16;;;;;;;;;9.33;8.67;;;;;21.48;100.00;99977.66;6409995;22;45220;-89
2022/05/16 07:15:42;;;;;;;;;9.00;9.00;;;;;21.56;100.00;100006.94;6408687;22;45349;-89
2022/05/16 07:18:07;;;;;;;;;9.33;9.33;;;;;21.59;100.00;99992.66;6375574;22;45212;-90
2022/05/16 07:20:33;;;;;;;;;9.00;9.00;;;;;21.68;100.00;99994.31;6400778;22;45236;-90
2022/05/16 07:22:58;;;;;;;;;8.33;8.00;;;;;21.76;100.00;100000.44;6374573;22;48056;-89
2022/05/16 07:25:26;;;;;;;;;8.00;8.00;;;;;21.86;100.00;100022.56;6403674;22;45603;-91
2022/05/16 07:28:01;;;;;;;;;8.67;7.33;;;;;21.85;100.00;100005.66;6399185;22;45248;-90
2022/05/16 07:30:31;;;;;;;;;9.00;8.00;;;;;21.91;100.00;100010.06;6399095;22;45433;-89
2022/05/16 07:32:58;;;;;;;;;10.67;9.00;;;;;21.97;100.00;100009.09;6365033;22;47016;-88
2022/05/16 07:35:26;;;;;;;;;7.00;6.00;;;;;22.09;100.00;100048.13;6394436;22;45213;-89
2022/05/16 07:37:53;;;;;;;;;8.33;8.00;;;;;22.17;100.00;100037.31;6369078;22;45379;-90
2022/05/16 07:40:22;;;;;;;;;11.00;10.67;;;;;22.18;100.00;100063.16;6373737;22;45531;-91
2022/05/16 07:42:49;;;;;;;;;11.50;9.00;;;;;22.15;100.00;100050.72;6373123;22;46766;-90
2022/05/16 07:45:14;;;;;;;;;12.00;9.67;;;;;22.16;100.00;100062.28;6397129;22;45312;-89
2022/05/16 07:47:39;;;;;;;;;9.00;8.33;;;;;22.13;100.00;100046.28;6368284;22;45626;-88
2022/05/16 07:50:07;;;;;;;;;7.00;7.00;;;;;22.13;100.00;100068.56;6366950;22;45383;-90
2022/05/16 07:52:33;;;;;;;;;10.67;10.67;;;;;22.09;100.00;100075.72;6368465;22;48167;-88
2022/05/16 07:54:58;;;;;;;;;9.00;9.00;;;;;22.16;100.00;100059.63;6403252;22;45326;-88
2022/05/16 07:57:24;;;;;;;;;8.33;8.33;;;;;22.21;100.00;100072.00;6396846;22;45280;-89
2022/05/16 07:59:49;;;;;;;;;10.67;9.33;;;;;22.32;100.00;100055.81;6397317;22;45296;-90
2022/05/16 08:02:15;;;;;;;;;11.33;9.67;;;;;22.44;100.00;100053.88;6368430;22;66135;-89
2022/05/16 08:04:41;;;;;;;;;8.00;8.00;;;;;22.39;100.00;100051.28;6368359;22;45303;-89
2022/05/16 08:07:07;;;;;;;;;10.33;8.33;;;;;22.61;100.00;100085.69;6367161;22;45198;-88
2022/05/16 08:12:32;;;;;;;;;7.33;7.33;;;;;22.81;100.00;100105.91;6397814;22;45288;-89
2022/05/16 08:14:57;;;;;;;;;11.67;9.00;;;;;22.92;100.00;100107.53;6399426;22;45390;-89
2022/05/16 08:17:23;;;;;;;;;5.00;5.00;;;;;22.93;100.00;100123.56;6398726;22;45292;-91
2022/05/16 08:19:49;;;;;;;;;7.67;6.67;;;;;22.98;100.00;100139.56;6367283;22;45665;-88
2022/05/16 08:22:16;;;;;;;;;12.00;8.00;;;;;23.06;100.00;100132.28;6365035;22;47169;-88
2022/05/16 08:24:41;;;;;;;;;9.67;8.00;;;;;23.10;100.00;100138.44;6369297;22;45432;-89
2022/05/16 08:27:07;;;;;;;;;7.67;7.67;;;;;23.18;100.00;100159.75;6369997;22;45494;-89
2022/05/16 08:29:32;;;;;;;;;9.67;6.67;;;;;23.27;100.00;100143.50;6398546;22;45325;-88
2022/05/16 08:31:58;;;;;;;;;11.00;9.00;;;;;23.37;100.00;100167.47;6397382;22;45419;-89
2022/05/16 08:34:24;;;;;;;;;6.67;5.67;;;;;23.44;100.00;100191.44;6368212;22;45511;-89
2022/05/16 08:39:52;;;;;;;;;7.67;5.67;;;;;23.42;100.00;100179.88;6398358;22;45259;-90
2022/05/16 08:42:22;;;;;;;;;10.33;8.00;;;;;23.44;100.00;100230.72;6398409;22;45241;-89
2022/05/16 08:45:15;;;;;;;;;7.33;6.00;;;;;23.51;100.00;100221.69;6369243;22;45485;-89
2022/05/16 08:47:55;;;;;;;;;10.00;7.67;;;;;23.57;100.00;100220.72;6391746;22;45367;-90
2022/05/16 08:50:21;;;;;;;;;7.33;7.33;;;;;23.63;100.00;100211.69;6400372;22;45652;-88
2022/05/16 08:52:54;;;;;;;;;9.67;7.67;;;;;23.62;100.00;100229.53;6368753;22;46321;-89
2022/05/16 08:55:37;;;;;;;;;6.00;6.00;;;;;23.57;100.00;100251.97;6368603;22;45274;-91
2022/05/16 08:58:12;;;;;;;;;10.00;6.33;;;;;23.46;100.00;100286.91;6367806;22;45554;-89
2022/05/16 09:00:52;;;;;;;;;7.67;6.00;;;;;23.35;100.00;100287.09;6369707;22;45462;-90
2022/05/16 09:03:24;;;;;;;;;6.00;5.67;;;;;23.33;100.00;100268.38;6367172;22;47926;-88
2022/05/16 09:05:59;;;;;;;;;6.67;6.00;;;;;23.32;100.00;100272.81;6368838;22;46013;-90
2022/05/16 09:08:52;;;;;;;;;7.00;6.00;;;;;23.39;100.00;100268.28;6367429;22;45247;-89
2022/05/16 09:11:29;;;;;;;;;7.33;7.33;;;;;23.53;100.00;100249.31;6396798;22;45378;-89
2022/05/16 09:14:00;;;;;;;;;7.33;6.67;;;;;23.68;100.00;100247.31;6368573;22;48383;-89
2022/05/16 09:16:38;;;;;;;;;8.67;8.67;;;;;23.80;100.00;100248.00;6372776;22;46188;-90
2022/05/16 09:19:39;;;;;;;;;6.67;6.33;;;;;23.87;100.00;100265.72;6398391;22;45482;-89
2022/05/16 09:22:15;;;;;;;;;9.33;6.33;;;;;23.95;100.00;100262.91;6364163;22;45641;-89
2022/05/16 09:24:49;;;;;;;;;6.67;5.67;;;;;23.99;100.00;100332.50;6367078;22;47404;-88
2022/05/16 09:30:08;;;;;;;;;7.67;5.33;;;;;24.33;100.00;100297.97;6394289;22;45535;-89
2022/05/16 09:32:39;;;;;;;;;6.33;5.67;;;;;24.73;100.00;100333.84;6367343;22;45358;-89
2022/05/16 09:35:19;;;;;;;;;7.33;7.33;;;;;25.09;100.00;100368.03;6366188;22;48029;-89
2022/05/16 09:37:44;;;;;;;;;7.67;5.67;;;;;25.53;100.00;100398.41;6399302;22;45332;-90
2022/05/16 09:40:10;;;;;;;;;8.67;7.67;;;;;26.00;100.00;100400.88;6402461;22;45506;-90
2022/05/16 09:42:37;;;;;;;;;8.00;6.00;;;;;26.33;100.00;100428.78;6398326;22;45419;-90
2022/05/16 09:45:13;;;;;;;;;5.67;4.33;;;;;26.51;100.00;100434.63;6371519;22;48447;-89
2022/05/16 09:47:41;;;;;;;;;7.67;6.67;;;;;26.85;100.00;100428.31;6395917;22;45316;-89
2022/05/16 09:50:10;;;;;;;;;7.00;5.33;;;;;27.72;100.00;100456.34;6396924;22;45255;-89
2022/05/16 09:52:42;;;;;;;;;3.00;3.00;;;;;28.11;100.00;100525.28;6368636;22;45843;-90
2022/05/16 09:55:22;;;;;;;;;8.33;7.00;;;;;29.91;100.00;100484.75;6368478;22;47302;-90
2022/05/16 09:57:49;;;;;;;;;9.00;7.00;;;;;31.86;100.00;100595.66;6397323;22;45725;-89
2022/05/16 10:00:15;;;;;;;;;5.33;5.33;;;;;33.87;100.00;100667.25;6398417;22;45620;-92
2022/05/16 10:02:41;;;;;;;;;6.00;5.67;;;;;35.85;100.00;100755.00;6367242;22;45254;-90
2022/05/16 10:05:19;;;;;;;;;7.33;5.67;;;;;38.02;100.00;100858.66;6366461;22;47351;-90
2022/05/16 10:07:48;;;;;;;;;6.33;6.00;;;;;39.99;100.00;100884.63;6396371;22;45748;-90
2022/05/16 10:10:26;;;;;;;;;4.67;4.67;;;;;40.77;100.00;101250.84;6397431;22;45606;-92
2022/05/16 10:12:54;;;;;;;;;7.00;5.67;;;;;41.77;100.00;101325.78;6398505;22;45327;-92
2022/05/16 10:15:20;;;;;;;;;5.00;4.33;;;;;41.11;91.92;101402.34;6395648;22;45263;-95
2022/05/16 10:17:48;;;;;;;;;4.00;4.00;;;;;39.73;87.24;101431.31;6367209;22;45410;-91
2022/05/16 10:20:21;;;;;;;;;6.33;5.00;;;;;39.03;88.00;101403.03;6398682;22;45438;-91
2022/05/16 10:22:50;;;;;;;;;7.33;6.00;;;;;40.07;91.56;101369.50;6395306;22;45272;-92
2022/05/16 10:25:20;;;;;;;;;4.33;4.33;;;;;41.81;86.11;101406.31;6369096;22;47000;-93
2022/05/16 10:27:48;;;;;;;;;5.00;4.33;;;;;43.48;86.12;101426.09;6398775;22;45377;-93
2022/05/16 10:30:21;;;;;;;;;5.67;5.00;;;;;44.59;81.19;101452.44;6369167;22;45330;-91
2022/05/16 10:35:55;;;;;;;;;1.67;1.67;;;;;47.12;71.77;101494.44;6398334;22;45202;-92
2022/05/16 10:38:56;;;;;;;;;5.00;4.00;;;;;48.06;67.68;101509.97;6366892;22;45875;-89
2022/05/16 10:41:35;;;;;;;;;4.00;4.00;;;;;48.81;68.35;101499.31;6352835;22;45325;-93
2022/05/16 10:44:21;;;;;;;;;3.33;3.33;;;;;49.78;64.51;101518.53;6369858;22;45852;-91
2022/05/16 10:47:07;;;;;;;;;4.67;4.67;;;;;50.63;60.45;101518.22;6372194;22;46136;-93
2022/05/16 10:49:41;;;;;;;;;4.00;4.00;;;;;51.29;58.99;101515.28;6372956;22;45232;-92
2022/05/16 10:52:19;;;;;;;;;3.00;3.00;;;;;51.88;56.37;101535.34;6377740;22;45229;-92
2022/05/16 10:54:44;;;;;;;;;2.00;2.00;;;;;52.44;54.94;101546.31;6383741;22;45489;-94
2022/05/16 10:57:15;;;;;;;;;2.33;2.00;;;;;52.99;53.57;101545.16;6382815;22;47015;-94
2022/05/16 11:00:00;;;;;;;;;4.00;3.00;;;;;53.52;53.29;101538.41;6381488;22;45282;-91
2022/05/16 11:03:03;;;;;;;;;4.33;3.00;;;;;53.95;48.70;101548.75;6369880;22;45375;-93
2022/05/16 11:05:56;;;;;;;;;2.33;2.33;;;;;54.41;49.05;101545.63;6367307;22;45741;-93
2022/05/16 11:08:27;;;;;;;;;6.00;3.33;;;;;54.79;48.03;101549.97;6367670;22;47096;-95
2022/05/16 11:11:25;;;;;;;;;3.00;3.00;;;;;55.26;46.22;101551.25;6399126;22;45532;-95
2022/05/16 11:14:09;;;;;;;;;2.00;2.00;;;;;55.58;45.08;101554.28;6367159;22;45540;-93
2022/05/16 11:16:38;;;;;;;;;2.00;2.00;;;;;55.88;44.45;101549.34;6368541;22;45656;-92
2022/05/16 11:19:25;;;;;;;;;3.33;2.00;;;;;56.26;44.16;101567.53;6367718;22;47148;-92
2022/05/16 11:22:23;;;;;;;;;1.00;1.00;;;;;56.70;43.56;101562.19;6367371;22;45851;-93
2022/05/16 11:24:57;;;;;;;;;2.67;2.33;;;;;54.24;40.80;101565.59;6317786;22;45412;-94
2022/05/16 11:27:34;;;;;;;;;2.00;1.67;;;;;53.35;41.48;101554.66;6339220;22;45230;-91
2022/05/16 11:30:39;;;;;;;;;1.00;1.00;;;;;51.22;42.13;101551.50;6336193;22;46307;-93
2022/05/16 11:33:07;;;;;;;;;2.00;2.00;;;;;51.08;43.50;101548.41;6366155;22;45327;-94
2022/05/16 11:35:47;;;;;;;;;2.00;2.00;;;;;50.16;42.67;101553.38;6336673;22;45373;-93
2022/05/16 11:38:56;;;;;;;;;2.00;2.00;;;;;50.58;43.07;101536.56;6330466;22;45526;-92
2022/05/16 11:41:45;;;;;;;;;2.00;2.00;;;;;52.07;43.72;101541.44;6273075;22;47458;-93
2022/05/16 11:44:35;;;;;;;;;2.00;2.00;;;;;53.50;42.63;101534.94;6273128;22;45250;-94
2022/05/16 11:47:13;;;;;;;;;4.00;2.33;;;;;54.60;42.57;101530.00;6272889;22;45370;-93
2022/05/16 11:49:43;;;;;;;;;1.00;1.00;;;;;55.59;42.17;101539.19;6272512;22;45399;-93
2022/05/16 11:52:21;;;;;;;;;2.00;2.00;;;;;56.59;40.16;101543.19;6273296;22;47836;-93
2022/05/16 12:00:52;;;;;;;;;2.33;2.33;;;;;57.05;39.03;101532.78;6302075;22;45689;-93
2022/05/16 12:03:20;;;;;;;;;2.00;2.00;;;;;57.63;37.88;101533.94;6275350;22;48013;-92
2022/05/16 12:05:52;;;;;;;;;3.00;2.67;;;;;58.40;37.23;101534.69;6301412;22;45504;-94
2022/05/16 12:08:23;;;;;;;;;0.00;0.00;;;;;57.74;37.31;101535.09;6277504;22;45196;-94
2022/05/16 12:11:04;;;;;;;;;1.33;1.33;;;;;56.09;36.62;101522.91;6301424;22;45446;-94
2022/05/16 12:13:33;;;;;;;;;1.33;1.00;;;;;56.17;37.36;101521.81;6274172;22;47343;-92
2022/05/16 12:16:13;;;;;;;;;1.00;1.00;;;;;57.26;37.70;101524.22;6356918;22;45295;-93
2022/05/16 12:18:48;;;;;;;;;1.00;1.00;;;;;58.22;36.79;101525.13;6350156;22;45535;-93
2022/05/16 12:21:34;;;;;;;;;2.67;2.00;;;;;59.06;35.72;101509.69;6348208;22;45311;-93
2022/05/16 12:24:27;;;;;;;;;2.00;2.00;;;;;59.59;34.06;101532.59;6361306;22;47286;-91
2022/05/16 12:27:20;;;;;;;;;1.67;1.00;;;;;59.28;34.80;101524.16;6376673;22;45255;-93
2022/05/16 12:29:52;;;;;;;;;1.00;1.00;;;;;58.87;33.87;101529.56;6374815;22;45353;-93
2022/05/16 12:32:47;;;;;;;;;1.00;1.00;;;;;55.42;34.14;101520.94;6379474;22;44767;-93
2022/05/16 12:35:35;;;;;;;;;0.00;0.00;;;;;51.59;35.78;101514.59;6370975;22;45517;-93
2022/05/16 12:38:01;;;;;;;;;2.33;2.33;;;;;48.73;36.67;101514.06;6377287;22;45372;-91
2022/05/16 12:41:04;;;;;;;;;2.00;1.00;;;;;46.41;38.12;101523.53;6372602;22;45408;-94
2022/05/16 12:44:07;;;;;;;;;1.33;1.33;;;;;44.64;40.35;101513.78;6377143;22;45274;-93
2022/05/16 12:47:06;;;;;;;;;0.33;0.33;;;;;44.06;41.57;101509.59;6379560;22;45471;-93
2022/05/16 12:49:49;;;;;;;;;2.67;2.67;;;;;42.64;42.02;101504.63;6371625;22;45173;-91
2022/05/16 12:52:37;;;;;;;;;1.00;1.00;;;;;41.41;43.62;101504.78;6369503;22;45290;-91
2022/05/16 12:55:24;;;;;;;;;0.00;0.00;;;;;40.20;45.17;101512.44;6362494;22;45205;-94
2022/05/16 12:58:12;;;;;;;;;0.00;0.00;;;;;39.04;46.04;101504.47;6368807;22;45583;-91
2022/05/16 13:00:51;;;;;;;;;1.00;1.00;;;;;37.94;47.33;101497.41;6366750;22;45382;-92
2022/05/16 13:03:29;;;;;;;;;1.00;1.00;;;;;36.99;48.78;101499.06;6362440;22;45665;-91
2022/05/16 13:06:04;;;;;;;;;1.67;1.67;;;;;36.05;49.65;101487.59;6372092;22;45324;-92
2022/05/16 13:08:55;;;;;;;;;1.00;1.00;;;;;35.23;50.59;101491.50;6367191;22;47092;-91
2022/05/16 13:11:56;;;;;;;;;1.00;1.00;;;;;34.59;51.66;101490.78;6363657;22;45331;-93
2022/05/16 13:14:34;;;;;;;;;3.67;1.00;;;;;35.99;54.92;101456.00;6277985;22;45539;-92
2022/05/16 13:17:06;;;;;;;;;1.00;1.00;;;;;40.67;54.08;101477.03;6299925;22;45488;-93
2022/05/16 13:19:34;;;;;;;;;1.00;1.00;;;;;45.35;51.92;101485.31;6275490;22;47017;-91
2022/05/16 13:22:11;;;;;;;;;1.00;1.00;;;;;49.51;48.04;101496.34;6301236;22;45432;-90
2022/05/16 13:24:37;;;;;;;;;0.33;0.33;;;;;51.27;44.71;101497.84;6272135;22;45524;-93
2022/05/16 13:29:53;;;;;;;;;3.00;0.00;;;;;47.46;43.02;101504.91;6299814;22;45293;-93
2022/05/16 13:32:26;;;;;;;;;1.00;1.00;;;;;45.57;42.94;101511.00;6252119;22;45597;-93
2022/05/16 13:34:55;;;;;;;;;0.33;0.33;;;;;44.29;43.66;101507.63;6278429;22;45391;-92
2022/05/16 13:37:38;;;;;;;;;0.67;0.00;;;;;46.48;45.34;101477.50;6275920;22;45552;-92
2022/05/16 13:40:07;;;;;;;;;0.00;0.00;;;;;48.93;44.35;101491.53;6301753;22;48251;-93
2022/05/16 13:42:35;;;;;;;;;0.00;0.00;;;;;51.50;44.49;101495.06;6275931;22;45414;-93
2022/05/16 13:45:01;;;;;;;;;1.00;1.00;;;;;52.44;41.42;101485.59;6272442;22;45476;-92
2022/05/16 13:47:29;;;;;;;;;0.00;0.00;;;;;50.51;39.69;101487.03;6303836;22;45410;-92
2022/05/16 13:49:56;;;;;;;;;0.00;0.00;;;;;50.81;41.43;101502.28;6312133;22;45463;-94
2022/05/16 13:52:31;;;;;;;;;2.00;2.00;;;;;50.24;40.44;101491.09;6363181;22;45334;-93
2022/05/16 13:55:00;;;;;;;;;0.00;0.00;;;;;49.38;40.09;101493.22;6366160;22;45273;-94
2022/05/16 13:57:27;;;;;;;;;0.67;0.33;;;;;48.32;40.64;101495.22;6366765;22;45428;-93
2022/05/16 14:00:25;;;;;;;;;1.33;0.00;;;;;46.43;40.80;101496.50;6369289;22;47691;-94
2022/05/16 14:02:55;;;;;;;;;0.00;0.00;;;;;44.29;41.93;101496.53;6370116;22;45403;-91
2022/05/16 14:05:40;;;;;;;;;1.00;1.00;;;;;43.18;43.00;101494.81;6369005;22;45294;-91
2022/05/16 14:08:18;;;;;;;;;0.00;0.00;;;;;45.32;44.24;101482.81;6367202;22;45431;-93
2022/05/16 14:10:44;;;;;;;;;0.00;0.00;;;;;46.43;42.86;101486.28;6366326;22;45644;-91
2022/05/16 14:13:15;;;;;;;;;1.00;0.00;;;;;45.42;41.89;101483.75;6363103;22;45626;-92
2022/05/16 14:15:51;;;;;;;;;0.33;0.33;;;;;46.82;41.64;101491.81;6363511;22;45349;-91
2022/05/16 14:18:23;;;;;;;;;0.00;0.00;;;;;49.01;42.41;101499.03;6366314;22;45503;-91
2022/05/16 14:20:49;;;;;;;;;0.67;0.00;;;;;50.97;41.34;101491.03;6361949;22;47215;-91
2022/05/16 14:23:14;;;;;;;;;2.00;0.00;;;;;52.69;39.42;101493.69;6373141;22;45416;-91
2022/05/16 14:25:41;;;;;;;;;1.00;1.00;;;;;54.10;38.58;101500.06;6372946;22;45230;-91
2022/05/16 14:28:22;;;;;;;;;0.00;0.00;;;;;55.39;37.64;101494.13;6370638;22;45397;-93
2022/05/16 14:31:04;;;;;;;;;0.33;0.33;;;;;55.52;36.49;101503.66;6400741;22;46939;-92
2022/05/16 14:33:36;;;;;;;;;0.00;0.00;;;;;53.10;35.76;101497.00;6370310;22;45348;-92
2022/05/16 14:36:10;;;;;;;;;0.00;0.00;;;;;51.31;36.38;101499.22;6376222;22;45336;-92
2022/05/16 14:38:44;;;;;;;;;0.00;0.00;;;;;49.40;37.21;101503.16;6384503;22;45395;-91
2022/05/16 14:41:16;;;;;;;;;0.00;0.00;;;;;47.22;37.73;101491.63;6383157;22;47162;-90
2022/05/16 14:43:53;;;;;;;;;0.00;0.00;;;;;45.79;38.76;101491.47;6417093;22;44683;-92
2022/05/16 14:49:03;;;;;;;;;0.33;0.33;;;;;48.38;38.79;101488.09;6401650;22;45374;-92
2022/05/16 14:51:30;;;;;;;;;0.00;0.00;;;;;48.73;38.05;101485.34;6400709;22;45679;-91
2022/05/16 14:53:56;;;;;;;;;0.00;0.00;;;;;47.53;38.24;101494.03;6370720;22;45385;-89
2022/05/16 14:56:22;;;;;;;;;0.00;0.00;;;;;45.80;38.27;101491.34;6371444;22;45276;-88
2022/05/16 14:58:51;;;;;;;;;0.00;0.00;;;;;44.00;39.09;101486.13;6400363;22;45451;-90
2022/05/16 15:04:05;;;;;;;;;0.00;0.00;;;;;40.96;40.73;101484.19;6398194;22;45448;-94
2022/05/16 15:06:39;;;;;;;;;0.00;0.00;;;;;39.75;41.47;101476.03;6367798;22;45418;-90
2022/05/16 15:09:09;;;;;;;;;0.00;0.00;;;;;38.46;43.19;101483.34;6367249;22;45262;-93
2022/05/16 15:11:42;;;;;;;;;0.00;0.00;;;;;37.31;43.39;101469.97;6397489;22;45355;-92
2022/05/16 15:14:08;;;;;;;;;0.00;0.00;;;;;36.54;45.00;101474.16;6398952;22;45397;-91
2022/05/16 15:16:33;;;;;;;;;0.00;0.00;;;;;35.99;45.89;101468.78;6369136;22;45419;-92
2022/05/16 15:18:59;;;;;;;;;0.00;0.00;;;;;35.60;45.67;101477.03;6397645;22;45220;-91
2022/05/16 15:21:25;;;;;;;;;0.00;0.00;;;;;35.17;47.38;101464.53;6367563;22;47439;-91
2022/05/16 15:23:51;;;;;;;;;0.00;0.00;;;;;34.82;48.24;101476.13;6398087;22;45597;-91
2022/05/16 15:26:18;;;;;;;;;0.00;0.00;;;;;34.37;48.35;101481.78;6398717;22;45338;-93
2022/05/16 15:28:44;;;;;;;;;0.00;0.00;;;;;33.82;49.13;101459.56;6398265;22;45236;-91
2022/05/16 15:31:10;;;;;;;;;0.00;0.00;;;;;33.38;49.10;101458.59;6399702;22;46086;-92
2022/05/16 15:33:35;;;;;;;;;0.67;0.00;;;;;33.00;49.72;101465.47;6370217;22;45922;-93
2022/05/16 15:36:03;;;;;;;;;1.00;0.00;;;;;32.60;49.93;101447.94;6369657;22;45671;-92
2022/05/16 15:38:28;;;;;;;;;0.00;0.00;;;;;32.30;51.02;101459.84;6398725;22;45417;-91
2022/05/16 15:40:56;;;;;;;;;0.00;0.00;;;;;32.03;52.28;101449.00;6376967;22;46947;-93
2022/05/16 15:43:21;;;;;;;;;0.00;0.00;;;;;31.73;52.49;101441.84;6319208;22;45521;-92
2022/05/16 15:45:50;;;;;;;;;0.33;0.33;;;;;31.38;52.54;101431.19;6401060;22;45362;-94
2022/05/16 15:48:17;;;;;;;;;0.00;0.00;;;;;31.17;53.36;101434.53;6369585;22;45714;-94
2022/05/16 15:50:46;;;;;;;;;0.00;0.00;;;;;30.87;53.54;101426.38;6399939;22;45439;-93
2022/05/16 15:53:12;;;;;;;;;0.00;0.00;;;;;30.58;53.93;101419.97;6370474;22;45311;-94
2022/05/16 15:55:39;;;;;;;;;0.00;0.00;;;;;30.35;54.67;101422.41;6371227;22;45440;-92
2022/05/16 15:58:07;;;;;;;;;0.00;0.00;;;;;30.14;54.80;101421.13;6377257;22;45263;-95
2022/05/16 16:00:34;;;;;;;;;0.00;0.00;;;;;30.03;55.53;101429.53;6373735;22;47092;-92
2022/05/16 16:03:01;;;;;;;;;0.00;0.00;;;;;29.91;57.04;101423.53;6404855;22;45356;-89
2022/05/16 16:10:59;;;;;;;;;0.00;0.00;;;;;29.74;57.21;101422.13;6399024;22;45836;-89
2022/05/16 16:13:27;;;;;;;;;0.00;0.00;;;;;29.65;58.04;101404.31;6396732;22;45269;-89
2022/05/16 16:15:58;;;;;;;;;0.00;0.00;;;;;29.56;57.88;101408.09;6398821;22;45371;-89
2022/05/16 16:18:25;;;;;;;;;0.50;0.50;;;;;29.49;58.01;101413.69;6398078;22;45669;-90
2022/05/16 16:20:51;;;;;;;;;0.33;0.33;;;;;29.46;58.18;101414.66;6397307;22;45524;-89
2022/05/16 16:23:19;;;;;;;;;0.67;0.00;;;;;29.43;59.36;101403.94;6367924;22;45402;-90
2022/05/16 16:25:45;;;;;;;;;0.00;0.00;;;;;29.37;58.52;101409.50;6398703;22;45405;-90
2022/05/16 16:28:11;;;;;;;;;0.00;0.00;;;;;29.37;59.08;101407.69;6396649;22;45237;-90
2022/05/16 16:30:42;;;;;;;;;0.00;0.00;;;;;29.40;58.96;101406.72;6395577;22;45269;-90
2022/05/16 16:33:09;;;;;;;;;0.67;0.33;;;;;29.49;59.17;101400.19;6394948;22;45650;-89
2022/05/16 16:35:35;;;;;;;;;0.33;0.33;;;;;29.52;58.85;101402.81;6397203;22;45470;-91
2022/05/16 16:38:08;;;;;;;;;0.00;0.00;;;;;29.52;59.64;101394.72;6398141;22;45415;-90
2022/05/16 16:40:41;;;;;;;;;0.33;0.33;;;;;29.53;59.06;101394.66;6369085;22;47136;-89
2022/05/16 16:43:20;;;;;;;;;0.00;0.00;;;;;29.51;59.68;101391.09;6396549;22;45746;-89
2022/05/16 16:45:45;;;;;;;;;0.33;0.00;;;;;29.47;60.05;101386.72;6398551;22;45437;-89
2022/05/16 16:48:11;;;;;;;;;1.00;1.00;;;;;29.47;60.00;101393.94;6396199;22;45539;-90
2022/05/16 16:50:36;;;;;;;;;2.00;2.00;;;;;29.34;60.27;101373.50;6398879;22;46089;-89
2022/05/16 16:58:29;;;;;;;;;0.00;0.00;;;;;28.97;60.45;101391.41;6398230;22;45334;-90
2022/05/16 17:00:54;;;;;;;;;3.33;1.00;;;;;28.90;61.93;101370.88;6398363;22;46032;-90
2022/05/16 17:03:21;;;;;;;;;0.67;0.00;;;;;28.80;61.55;101367.47;6367667;22;48819;-88
2022/05/16 17:05:48;;;;;;;;;0.00;0.00;;;;;28.73;61.21;101377.53;6399079;22;45287;-91
2022/05/16 17:08:17;;;;;;;;;0.00;0.00;;;;;28.66;61.57;101365.06;6397386;22;45260;-89
2022/05/16 17:10:52;;;;;;;;;0.00;0.00;;;;;28.58;60.99;101384.13;6368681;22;47610;-89
2022/05/16 17:13:25;;;;;;;;;0.00;0.00;;;;;28.51;60.87;101390.56;6368423;22;45714;-91
2022/05/16 17:15:54;;;;;;;;;0.00;0.00;;;;;28.40;61.09;101382.69;6368718;22;45577;-89
2022/05/16 17:18:19;;;;;;;;;0.00;0.00;;;;;28.32;61.46;101381.00;6397083;22;45414;-89
2022/05/16 17:20:45;;;;;;;;;0.00;0.00;;;;;28.23;61.01;101378.50;6369060;22;47674;-91
2022/05/16 17:23:13;;;;;;;;;1.00;0.00;;;;;28.16;61.50;101375.03;6367799;22;45700;-91
2022/05/16 17:25:43;;;;;;;;;0.00;0.00;;;;;28.11;61.39;101376.94;6370011;22;45347;-90
2022/05/16 17:28:08;;;;;;;;;1.67;0.67;;;;;28.04;61.73;101381.53;6359484;22;45274;-90
2022/05/16 17:30:35;;;;;;;;;0.67;0.67;;;;;27.98;62.07;101379.84;6398406;22;45311;-91
2022/05/16 17:33:07;;;;;;;;;0.00;0.00;;;;;27.93;62.80;101368.25;6397734;22;45301;-91
2022/05/16 17:35:38;;;;;;;;;0.00;0.00;;;;;27.86;62.95;101371.94;6398879;22;45386;-94
2022/05/16 17:38:04;;;;;;;;;0.33;0.33;;;;;27.81;64.27;101349.59;6373460;22;45576;-95
2022/05/16 17:40:33;;;;;;;;;1.67;1.67;;;;;27.78;63.61;101367.56;6368594;22;47277;-88
2022/05/16 17:43:00;;;;;;;;;1.00;1.00;;;;;27.71;64.23;101360.50;6371469;22;45362;-89
2022/05/16 17:45:25;;;;;;;;;0.33;0.33;;;;;27.65;64.40;101357.91;6366439;22;45280;-89
2022/05/16 17:47:50;;;;;;;;;0.00;0.00;;;;;27.56;64.14;101358.94;6365534;22;46339;-89
2022/05/16 17:50:16;;;;;;;;;0.00;0.00;;;;;27.56;64.31;101364.34;6369539;22;47347;-89
2022/05/16 17:52:41;;;;;;;;;0.00;0.00;;;;;27.53;64.10;101372.47;6368345;22;45696;-88
2022/05/16 17:55:08;;;;;;;;;0.00;0.00;;;;;27.48;64.24;101375.25;6369174;22;45500;-89
2022/05/16 17:57:34;;;;;;;;;0.67;0.67;;;;;27.49;64.98;101363.56;6397483;22;45325;-89
2022/05/16 18:00:00;;;;;;;;;0.00;0.00;;;;;27.47;65.24;101359.13;6371563;22;46226;-89
2022/05/16 18:02:27;;;;;;;;;1.67;1.67;;;;;27.45;65.12;101365.41;6368601;22;45378;-89
2022/05/16 18:04:54;;;;;;;;;1.00;1.00;;;;;27.42;65.63;101360.06;6398190;22;45325;-91
2022/05/16 18:07:21;;;;;;;;;0.00;0.00;;;;;27.37;65.14;101361.06;6368142;22;45381;-88
2022/05/16 18:09:47;;;;;;;;;0.33;0.33;;;;;27.36;64.91;101378.13;6397803;22;45232;-89
2022/05/16 18:14:57;;;;;;;;;0.00;0.00;;;;;27.22;65.49;101363.97;6397719;22;45205;-88
2022/05/16 18:17:24;;;;;;;;;0.00;0.00;;;;;27.20;65.12;101367.59;6396910;22;45305;-87
2022/05/16 18:19:49;;;;;;;;;0.00;0.00;;;;;27.14;66.23;101356.94;6370155;22;47051;-88
2022/05/16 18:22:21;;;;;;;;;1.00;1.00;;;;;27.06;66.67;101355.19;6392869;22;44741;-87
2022/05/16 18:24:46;;;;;;;;;1.33;1.33;;;;;27.00;67.10;101345.41;6392404;22;44679;-88
2022/05/16 18:27:12;;;;;;;;;1.67;0.33;;;;;26.96;66.93;101367.88;6383733;22;45278;-88
2022/05/16 18:29:38;;;;;;;;;2.67;1.67;;;;;26.91;66.92;101360.78;6408187;22;45294;-88
2022/05/16 18:32:05;;;;;;;;;2.33;1.33;;;;;26.87;66.97;101357.25;6371609;22;45940;-89
2022/05/16 18:34:31;;;;;;;;;0.33;0.33;;;;;26.81;67.52;101346.53;6367942;22;45836;-89
2022/05/16 18:36:56;;;;;;;;;0.00;0.00;;;;;26.78;68.58;101312.47;6367566;22;45617;-89
2022/05/16 18:39:22;;;;;;;;;4.00;4.00;;;;;26.70;68.54;101320.66;6367326;22;47956;-90
2022/05/16 18:50:53;;;;;;;;;3.00;1.67;;;;;26.50;70.79;101272.47;6394855;22;45295;-89
2022/05/16 18:52:55;;;;;;;;;5.00;2.00;;;;;26.43;71.85;101242.03;6377925;22;45268;-88
2022/05/16 18:55:22;;;;;;;;;1.67;1.67;;;;;26.37;71.58;101255.56;6366503;22;45792;-87
2022/05/16 18:57:47;;;;;;;;;2.33;2.33;;;;;26.29;70.87;101275.41;6365066;22;45639;-88